sensor_id;sensor_type;location;lat;lon;timestamp;pressure;altitude;pressure_sealevel;temperature;humidity
10127;BME280;13080;42.608;23.362;2023-12-07T00:00:27;151682.25;;;2.28;100.00
10127;BME280;13080;42.608;23.362;2023-12-07T00:02:53;151673.25;;;2.25;100.00
10127;BME280;13080;42.608;23.362;2023-12-07T00:05:22;151673.25;;;2.25;100.00
10127;BME280;13080;42.608;23.362;2023-12-07T00:07:48;151684.88;;;2.29;100.00
10127;BME280;13080;42.608;23.362;2023-12-07T00:10:15;151674.53;;;2.25;100.00
10127;BME280;13080;42.608;23.362;2023-12-07T00:12:42;151677.13;;;2.26;100.00
10127;BME280;13080;42.608;23.362;2023-12-07T00:15:09;151686.16;;;2.30;100.00
10127;BME280;13080;42.608;23.362;2023-12-07T00:17:36;151684.88;;;2.29;100.00
10127;BME280;13080;42.608;23.362;2023-12-07T00:20:04;151692.59;;;2.33;100.00
10127;BME280;13080;42.608;23.362;2023-12-07T00:22:32;151683.59;;;2.29;100.00
10127;BME280;13080;42.608;23.362;2023-12-07T00:24:59;151691.31;;;2.32;100.00
10127;BME280;13080;42.608;23.362;2023-12-07T00:27:26;151699.03;;;2.35;100.00
10127;BME280;13080;42.608;23.362;2023-12-07T00:29:53;151697.75;;;2.35;100.00
10127;BME280;13080;42.608;23.362;2023-12-07T00:32:20;151695.19;;;2.34;100.00
10127;BME280;13080;42.608;23.362;2023-12-07T00:34:47;151696.47;;;2.34;100.00
10127;BME280;13080;42.608;23.362;2023-12-07T00:37:14;151696.47;;;2.34;100.00
10127;BME280;13080;42.608;23.362;2023-12-07T00:39:43;151696.47;;;2.34;100.00
10127;BME280;13080;42.608;23.362;2023-12-07T00:42:11;151701.63;;;2.36;100.00
10127;BME280;13080;42.608;23.362;2023-12-07T00:44:39;151708.09;;;2.39;100.00
10127;BME280;13080;42.608;23.362;2023-12-07T00:47:06;151711.97;;;2.40;100.00
10127;BME280;13080;42.608;23.362;2023-12-07T00:49:33;151717.13;;;2.42;100.00
10127;BME280;13080;42.608;23.362;2023-12-07T00:52:00;151715.81;;;2.42;100.00
10127;BME280;13080;42.608;23.362;2023-12-07T00:54:28;151713.25;;;2.41;100.00
10127;BME280;13080;42.608;23.362;2023-12-07T00:56:56;151711.97;;;2.40;100.00
10127;BME280;13080;42.608;23.362;2023-12-07T00:59:23;151718.41;;;2.43;100.00
10127;BME280;13080;42.608;23.362;2023-12-07T01:01:50;151714.53;;;2.41;100.00
10127;BME280;13080;42.608;23.362;2023-12-07T01:04:17;151715.81;;;2.42;100.00
10127;BME280;13080;42.608;23.362;2023-12-07T01:06:44;151709.38;;;2.39;100.00
10127;BME280;13080;42.608;23.362;2023-12-07T01:09:11;151711.97;;;2.40;100.00
10127;BME280;13080;42.608;23.362;2023-12-07T01:11:38;151705.53;;;2.38;100.00
10127;BME280;13080;42.608;23.362;2023-12-07T01:14:07;151708.09;;;2.39;100.00
10127;BME280;13080;42.608;23.362;2023-12-07T01:16:34;151704.19;;;2.37;100.00
10127;BME280;13080;42.608;23.362;2023-12-07T01:19:01;151696.47;;;2.34;100.00
10127;BME280;13080;42.608;23.362;2023-12-07T01:21:28;151693.88;;;2.33;100.00
10127;BME280;13080;42.608;23.362;2023-12-07T01:23:55;151690.03;;;2.32;100.00
10127;BME280;13080;42.608;23.362;2023-12-07T01:26:23;151693.88;;;2.33;100.00
10127;BME280;13080;42.608;23.362;2023-12-07T01:28:50;151702.91;;;2.37;100.00
10127;BME280;13080;42.608;23.362;2023-12-07T01:31:19;151701.63;;;2.36;100.00
10127;BME280;13080;42.608;23.362;2023-12-07T01:33:45;151708.09;;;2.39;100.00
10127;BME280;13080;42.608;23.362;2023-12-07T01:36:12;151715.81;;;2.42;100.00
10127;BME280;13080;42.608;23.362;2023-12-07T01:38:39;151737.75;;;2.50;100.00
10127;BME280;13080;42.608;23.362;2023-12-07T01:41:06;151710.66;;;2.40;100.00
10127;BME280;13080;42.608;23.362;2023-12-07T01:43:34;151705.53;;;2.38;100.00
10127;BME280;13080;42.608;23.362;2023-12-07T01:46:01;151700.38;;;2.36;100.00
10127;BME280;13080;42.608;23.362;2023-12-07T01:48:30;151702.91;;;2.37;100.00
10127;BME280;13080;42.608;23.362;2023-12-07T01:50:58;151713.25;;;2.41;100.00
10127;BME280;13080;42.608;23.362;2023-12-07T01:53:26;151708.09;;;2.39;100.00
10127;BME280;13080;42.608;23.362;2023-12-07T01:55:53;151706.81;;;2.38;100.00
10127;BME280;13080;42.608;23.362;2023-12-07T01:58:21;151710.66;;;2.40;100.00
10127;BME280;13080;42.608;23.362;2023-12-07T02:00:48;151709.38;;;2.39;100.00
10127;BME280;13080;42.608;23.362;2023-12-07T02:03:16;151718.41;;;2.43;100.00
10127;BME280;13080;42.608;23.362;2023-12-07T02:05:47;151717.13;;;2.42;100.00
10127;BME280;13080;42.608;23.362;2023-12-07T02:08:14;151744.19;;;2.53;100.00
10127;BME280;13080;42.608;23.362;2023-12-07T02:10:41;151731.31;;;2.48;100.00
10127;BME280;13080;42.608;23.362;2023-12-07T02:13:08;151723.59;;;2.45;100.00
10127;BME280;13080;42.608;23.362;2023-12-07T02:15:35;151733.91;;;2.49;100.00
10127;BME280;13080;42.608;23.362;2023-12-07T02:18:08;151727.41;;;2.46;100.00
10127;BME280;13080;42.608;23.362;2023-12-07T02:20:41;151720.97;;;2.44;100.00
10127;BME280;13080;42.608;23.362;2023-12-07T02:23:13;151718.41;;;2.43;100.00
10127;BME280;13080;42.608;23.362;2023-12-07T02:28:52;151718.41;;;2.43;100.00
10127;BME280;13080;42.608;23.362;2023-12-07T02:31:19;151717.13;;;2.42;100.00
10127;BME280;13080;42.608;23.362;2023-12-07T02:33:46;151704.19;;;2.37;100.00
10127;BME280;13080;42.608;23.362;2023-12-07T02:36:14;151713.25;;;2.41;100.00
10127;BME280;13080;42.608;23.362;2023-12-07T02:38:44;151710.66;;;2.40;100.00
10127;BME280;13080;42.608;23.362;2023-12-07T02:41:14;151702.91;;;2.37;100.00
10127;BME280;13080;42.608;23.362;2023-12-07T02:43:42;151695.19;;;2.34;100.00
10127;BME280;13080;42.608;23.362;2023-12-07T02:46:10;151706.81;;;2.38;100.00
10127;BME280;13080;42.608;23.362;2023-12-07T02:48:37;151708.09;;;2.39;100.00
10127;BME280;13080;42.608;23.362;2023-12-07T02:51:04;151709.38;;;2.39;100.00
10127;BME280;13080;42.608;23.362;2023-12-07T02:53:31;151706.81;;;2.38;100.00
10127;BME280;13080;42.608;23.362;2023-12-07T02:55:58;151705.53;;;2.38;100.00
10127;BME280;13080;42.608;23.362;2023-12-07T02:58:25;151706.81;;;2.38;100.00
10127;BME280;13080;42.608;23.362;2023-12-07T03:00:52;151705.53;;;2.38;100.00
10127;BME280;13080;42.608;23.362;2023-12-07T03:03:20;151704.19;;;2.37;100.00
10127;BME280;13080;42.608;23.362;2023-12-07T03:05:47;151702.91;;;2.37;100.00
10127;BME280;13080;42.608;23.362;2023-12-07T03:08:14;151706.81;;;2.38;100.00
10127;BME280;13080;42.608;23.362;2023-12-07T03:10:41;151717.13;;;2.42;100.00
10127;BME280;13080;42.608;23.362;2023-12-07T03:13:08;151724.84;;;2.45;100.00
10127;BME280;13080;42.608;23.362;2023-12-07T03:15:35;151722.31;;;2.44;100.00
10127;BME280;13080;42.608;23.362;2023-12-07T03:18:02;151714.53;;;2.41;100.00
10127;BME280;13080;42.608;23.362;2023-12-07T03:20:31;151723.59;;;2.45;100.00
10127;BME280;13080;42.608;23.362;2023-12-07T03:22:57;151718.41;;;2.43;100.00
10127;BME280;13080;42.608;23.362;2023-12-07T03:25:25;151733.91;;;2.49;100.00
10127;BME280;13080;42.608;23.362;2023-12-07T03:27:52;151724.84;;;2.45;100.00
10127;BME280;13080;42.608;23.362;2023-12-07T03:30:18;151714.53;;;2.41;100.00
10127;BME280;13080;42.608;23.362;2023-12-07T03:32:45;151704.19;;;2.37;100.00
10127;BME280;13080;42.608;23.362;2023-12-07T03:35:12;151695.19;;;2.34;100.00
10127;BME280;13080;42.608;23.362;2023-12-07T03:37:40;151687.41;;;2.31;100.00
10127;BME280;13080;42.608;23.362;2023-12-07T03:40:08;151680.97;;;2.28;100.00
10127;BME280;13080;42.608;23.362;2023-12-07T03:42:35;151675.81;;;2.26;100.00
10127;BME280;13080;42.608;23.362;2023-12-07T03:45:03;151679.69;;;2.27;100.00
10127;BME280;13080;42.608;23.362;2023-12-07T03:47:31;151699.03;;;2.35;100.00
10127;BME280;13080;42.608;23.362;2023-12-07T03:49:58;151699.03;;;2.35;100.00
10127;BME280;13080;42.608;23.362;2023-12-07T03:52:24;151714.53;;;2.41;100.00
10127;BME280;13080;42.608;23.362;2023-12-07T03:54:53;151719.69;;;2.43;100.00
10127;BME280;13080;42.608;23.362;2023-12-07T03:57:20;151714.53;;;2.41;100.00
10127;BME280;13080;42.608;23.362;2023-12-07T03:59:47;151723.59;;;2.45;100.00
10127;BME280;13080;42.608;23.362;2023-12-07T04:02:14;151730.03;;;2.47;100.00
10127;BME280;13080;42.608;23.362;2023-12-07T04:04:40;151728.75;;;2.47;100.00
10127;BME280;13080;42.608;23.362;2023-12-07T04:07:07;151741.63;;;2.52;100.00
10127;BME280;13080;42.608;23.362;2023-12-07T04:09:34;151750.69;;;2.56;100.00
10127;BME280;13080;42.608;23.362;2023-12-07T04:12:03;151749.38;;;2.55;100.00
10127;BME280;13080;42.608;23.362;2023-12-07T04:14:30;151733.91;;;2.49;100.00
10127;BME280;13080;42.608;23.362;2023-12-07T04:16:57;151728.75;;;2.47;100.00
10127;BME280;13080;42.608;23.362;2023-12-07T04:19:24;151724.84;;;2.45;100.00
10127;BME280;13080;42.608;23.362;2023-12-07T04:21:51;151722.31;;;2.44;100.00
10127;BME280;13080;42.608;23.362;2023-12-07T04:24:18;151722.31;;;2.44;100.00
10127;BME280;13080;42.608;23.362;2023-12-07T04:26:44;151722.31;;;2.44;100.00
10127;BME280;13080;42.608;23.362;2023-12-07T04:29:13;151737.75;;;2.50;100.00
10127;BME280;13080;42.608;23.362;2023-12-07T04:31:40;151741.63;;;2.52;100.00
10127;BME280;13080;42.608;23.362;2023-12-07T04:34:07;151745.53;;;2.54;100.00
10127;BME280;13080;42.608;23.362;2023-12-07T04:36:34;151754.53;;;2.57;100.00
10127;BME280;13080;42.608;23.362;2023-12-07T04:39:01;151748.09;;;2.55;100.00
10127;BME280;13080;42.608;23.362;2023-12-07T04:41:28;151757.13;;;2.58;100.00
10127;BME280;13080;42.608;23.362;2023-12-07T04:43:55;151789.38;;;2.71;100.00
10127;BME280;13080;42.608;23.362;2023-12-07T04:46:23;151794.53;;;2.73;100.00
10127;BME280;13080;42.608;23.362;2023-12-07T04:48:50;151777.75;;;2.66;100.00
10127;BME280;13080;42.608;23.362;2023-12-07T04:51:18;151757.13;;;2.58;100.00
10127;BME280;13080;42.608;23.362;2023-12-07T04:53:46;151745.53;;;2.54;100.00
10127;BME280;13080;42.608;23.362;2023-12-07T04:56:13;151744.19;;;2.53;100.00
10127;BME280;13080;42.608;23.362;2023-12-07T04:58:40;151739.03;;;2.51;100.00
10127;BME280;13080;42.608;23.362;2023-12-07T05:01:07;151733.91;;;2.49;100.00
10127;BME280;13080;42.608;23.362;2023-12-07T05:03:35;151737.75;;;2.50;100.00
10127;BME280;13080;42.608;23.362;2023-12-07T05:06:02;151739.03;;;2.51;100.00
10127;BME280;13080;42.608;23.362;2023-12-07T05:08:29;151737.75;;;2.50;100.00
10127;BME280;13080;42.608;23.362;2023-12-07T05:10:57;151731.31;;;2.48;100.00
10127;BME280;13080;42.608;23.362;2023-12-07T05:13:24;151741.63;;;2.52;100.00
10127;BME280;13080;42.608;23.362;2023-12-07T05:15:51;151736.47;;;2.50;100.00
10127;BME280;13080;42.608;23.362;2023-12-07T05:18:18;151727.41;;;2.46;100.00
10127;BME280;13080;42.608;23.362;2023-12-07T05:20:46;151731.31;;;2.48;100.00
10127;BME280;13080;42.608;23.362;2023-12-07T05:23:13;151736.47;;;2.50;100.00
10127;BME280;13080;42.608;23.362;2023-12-07T05:25:40;151737.75;;;2.50;100.00
10127;BME280;13080;42.608;23.362;2023-12-07T05:28:07;151741.63;;;2.52;100.00
10127;BME280;13080;42.608;23.362;2023-12-07T05:30:35;151742.91;;;2.53;100.00
10127;BME280;13080;42.608;23.362;2023-12-07T05:33:02;151750.69;;;2.56;100.00
10127;BME280;13080;42.608;23.362;2023-12-07T05:35:30;151749.38;;;2.55;100.00
10127;BME280;13080;42.608;23.362;2023-12-07T05:37:58;151737.75;;;2.50;100.00
10127;BME280;13080;42.608;23.362;2023-12-07T05:40:25;151744.19;;;2.53;100.00
10127;BME280;13080;42.608;23.362;2023-12-07T05:42:52;151732.59;;;2.48;100.00
10127;BME280;13080;42.608;23.362;2023-12-07T05:45:19;151748.09;;;2.55;100.00
10127;BME280;13080;42.608;23.362;2023-12-07T05:47:46;151740.34;;;2.52;100.00
10127;BME280;13080;42.608;23.362;2023-12-07T05:50:13;151739.03;;;2.51;100.00
10127;BME280;13080;42.608;23.362;2023-12-07T05:52:40;151733.91;;;2.49;100.00
10127;BME280;13080;42.608;23.362;2023-12-07T05:55:08;151733.91;;;2.49;100.00
10127;BME280;13080;42.608;23.362;2023-12-07T05:57:35;151726.13;;;2.46;100.00
10127;BME280;13080;42.608;23.362;2023-12-07T06:00:02;151739.03;;;2.51;100.00
10127;BME280;13080;42.608;23.362;2023-12-07T06:02:31;151748.09;;;2.55;100.00
10127;BME280;13080;42.608;23.362;2023-12-07T06:04:58;151753.25;;;2.57;100.00
10127;BME280;13080;42.608;23.362;2023-12-07T06:07:25;151759.69;;;2.59;100.00
10127;BME280;13080;42.608;23.362;2023-12-07T06:09:52;151764.88;;;2.61;100.00
10127;BME280;13080;42.608;23.362;2023-12-07T06:12:20;151766.16;;;2.62;100.00
10127;BME280;13080;42.608;23.362;2023-12-07T06:14:47;151788.09;;;2.70;100.00
10127;BME280;13080;42.608;23.362;2023-12-07T06:17:14;151790.69;;;2.72;100.00
10127;BME280;13080;42.608;23.362;2023-12-07T06:19:41;151777.75;;;2.66;100.00
10127;BME280;13080;42.608;23.362;2023-12-07T06:22:07;151806.16;;;2.78;100.00
10127;BME280;13080;42.608;23.362;2023-12-07T06:24:35;151810.03;;;2.79;100.00
10127;BME280;13080;42.608;23.362;2023-12-07T06:27:02;151842.31;;;2.92;100.00
10127;BME280;13080;42.608;23.362;2023-12-07T06:29:31;151847.50;;;2.94;100.00
10127;BME280;13080;42.608;23.362;2023-12-07T06:31:57;151837.16;;;2.90;100.00
10127;BME280;13080;42.608;23.362;2023-12-07T06:34:26;151819.09;;;2.83;100.00
10127;BME280;13080;42.608;23.362;2023-12-07T06:36:53;151807.47;;;2.78;100.00
10127;BME280;13080;42.608;23.362;2023-12-07T06:39:21;151817.75;;;2.82;100.00
10127;BME280;13080;42.608;23.362;2023-12-07T06:41:48;151824.25;;;2.85;100.00
10127;BME280;13080;42.608;23.362;2023-12-07T06:44:15;151826.81;;;2.86;100.00
10127;BME280;13080;42.608;23.362;2023-12-07T06:46:44;151842.31;;;2.92;100.00
10127;BME280;13080;42.608;23.362;2023-12-07T06:49:11;151859.09;;;2.99;100.00
10127;BME280;13080;42.608;23.362;2023-12-07T06:51:38;151888.78;;;3.10;100.00
10127;BME280;13080;42.608;23.362;2023-12-07T06:54:04;151895.25;;;3.13;100.00
10127;BME280;13080;42.608;23.362;2023-12-07T06:56:31;151905.56;;;3.17;100.00
10127;BME280;13080;42.608;23.362;2023-12-07T06:58:58;151912.03;;;3.20;100.00
10127;BME280;13080;42.608;23.362;2023-12-07T07:01:25;151927.53;;;3.26;100.00
10127;BME280;13080;42.608;23.362;2023-12-07T07:03:53;151936.53;;;3.29;100.00
10127;BME280;13080;42.608;23.362;2023-12-07T07:06:21;151945.59;;;3.33;100.00
10127;BME280;13080;42.608;23.362;2023-12-07T07:08:48;151945.59;;;3.33;100.00
10127;BME280;13080;42.608;23.362;2023-12-07T07:11:15;151975.28;;;3.45;100.00
10127;BME280;13080;42.608;23.362;2023-12-07T07:13:42;151976.63;;;3.45;100.00
10127;BME280;13080;42.608;23.362;2023-12-07T07:16:09;151992.09;;;3.51;100.00
10127;BME280;13080;42.608;23.362;2023-12-07T07:18:37;152014.03;;;3.60;100.00
10127;BME280;13080;42.608;23.362;2023-12-07T07:21:06;152023.09;;;3.64;100.00
10127;BME280;13080;42.608;23.362;2023-12-07T07:23:34;152042.47;;;3.71;100.00
10127;BME280;13080;42.608;23.362;2023-12-07T07:26:01;152054.09;;;3.76;100.00
10127;BME280;13080;42.608;23.362;2023-12-07T07:28:28;152029.56;;;3.66;100.00
10127;BME280;13080;42.608;23.362;2023-12-07T07:30:55;152006.31;;;3.57;100.00
10127;BME280;13080;42.608;23.362;2023-12-07T07:33:22;152002.44;;;3.56;100.00
10127;BME280;13080;42.608;23.362;2023-12-07T07:35:49;152002.44;;;3.56;100.00
10127;BME280;13080;42.608;23.362;2023-12-07T07:38:17;152001.16;;;3.55;100.00
10127;BME280;13080;42.608;23.362;2023-12-07T07:40:44;152024.38;;;3.64;100.00
10127;BME280;13080;42.608;23.362;2023-12-07T07:43:12;152017.94;;;3.62;100.00
10127;BME280;13080;42.608;23.362;2023-12-07T07:45:39;152032.13;;;3.67;100.00
10127;BME280;13080;42.608;23.362;2023-12-07T07:48:06;152033.44;;;3.68;100.00
10127;BME280;13080;42.608;23.362;2023-12-07T07:50:33;152051.53;;;3.75;100.00
10127;BME280;13080;42.608;23.362;2023-12-07T07:53:02;152068.31;;;3.82;100.00
10127;BME280;13080;42.608;23.362;2023-12-07T07:55:30;152086.41;;;3.89;100.00
10127;BME280;13080;42.608;23.362;2023-12-07T07:57:57;152085.13;;;3.88;100.00
10127;BME280;13080;42.608;23.362;2023-12-07T08:00:24;152060.53;;;3.79;100.00
10127;BME280;13080;42.608;23.362;2023-12-07T08:02:53;152047.63;;;3.73;100.00
10127;BME280;13080;42.608;23.362;2023-12-07T08:05:20;152064.44;;;3.80;100.00
10127;BME280;13080;42.608;23.362;2023-12-07T08:07:47;152060.53;;;3.79;100.00
10127;BME280;13080;42.608;23.362;2023-12-07T08:10:14;152051.53;;;3.75;100.00
10127;BME280;13080;42.608;23.362;2023-12-07T08:12:42;152043.75;;;3.72;100.00
10127;BME280;13080;42.608;23.362;2023-12-07T08:15:10;151964.94;;;3.41;100.00
10127;BME280;13080;42.608;23.362;2023-12-07T08:17:37;151981.75;;;3.47;100.00
10127;BME280;13080;42.608;23.362;2023-12-07T08:20:06;151963.69;;;3.40;100.00
10127;BME280;13080;42.608;23.362;2023-12-07T08:22:34;151935.25;;;3.29;100.00
10127;BME280;13080;42.608;23.362;2023-12-07T08:25:02;151913.31;;;3.20;100.00
10127;BME280;13080;42.608;23.362;2023-12-07T08:27:31;151891.34;;;3.11;100.00
10127;BME280;13080;42.608;23.362;2023-12-07T08:29:59;151870.72;;;3.03;100.00
10127;BME280;13080;42.608;23.362;2023-12-07T08:32:26;151870.72;;;3.03;100.00
10127;BME280;13080;42.608;23.362;2023-12-07T08:34:54;151859.09;;;2.99;100.00
10127;BME280;13080;42.608;23.362;2023-12-07T08:37:21;151857.78;;;2.98;100.00
10127;BME280;13080;42.608;23.362;2023-12-07T08:39:48;151843.59;;;2.92;100.00
10127;BME280;13080;42.608;23.362;2023-12-07T08:42:15;151830.72;;;2.87;100.00
10127;BME280;13080;42.608;23.362;2023-12-07T08:44:43;151841.03;;;2.91;100.00
10127;BME280;13080;42.608;23.362;2023-12-07T08:47:11;151812.59;;;2.80;100.00
10127;BME280;13080;42.608;23.362;2023-12-07T08:49:38;151812.59;;;2.80;100.00
10127;BME280;13080;42.608;23.362;2023-12-07T08:52:05;151817.75;;;2.82;100.00
10127;BME280;13080;42.608;23.362;2023-12-07T08:54:32;151819.09;;;2.83;100.00
10127;BME280;13080;42.608;23.362;2023-12-07T08:57:01;151784.19;;;2.69;100.00
10127;BME280;13080;42.608;23.362;2023-12-07T08:59:28;151789.38;;;2.71;100.00
10127;BME280;13080;42.608;23.362;2023-12-07T09:01:55;151763.59;;;2.61;100.00
10127;BME280;13080;42.608;23.362;2023-12-07T09:04:23;151791.97;;;2.72;100.00
10127;BME280;13080;42.608;23.362;2023-12-07T09:06:50;151777.75;;;2.66;100.00
10127;BME280;13080;42.608;23.362;2023-12-07T09:09:17;151741.63;;;2.52;100.00
10127;BME280;13080;42.608;23.362;2023-12-07T09:11:44;151763.59;;;2.61;100.00
10127;BME280;13080;42.608;23.362;2023-12-07T09:14:11;151781.63;;;2.68;100.00
10127;BME280;13080;42.608;23.362;2023-12-07T09:16:43;151784.19;;;2.69;100.00
10127;BME280;13080;42.608;23.362;2023-12-07T09:19:10;151784.19;;;2.69;100.00
10127;BME280;13080;42.608;23.362;2023-12-07T09:21:39;151772.59;;;2.64;100.00
10127;BME280;13080;42.608;23.362;2023-12-07T09:24:06;151764.88;;;2.61;100.00
10127;BME280;13080;42.608;23.362;2023-12-07T09:26:33;151777.75;;;2.66;100.00
10127;BME280;13080;42.608;23.362;2023-12-07T09:29:00;151795.88;;;2.74;100.00
10127;BME280;13080;42.608;23.362;2023-12-07T09:31:27;151779.09;;;2.67;100.00
10127;BME280;13080;42.608;23.362;2023-12-07T09:33:54;151786.81;;;2.70;100.00
10127;BME280;13080;42.608;23.362;2023-12-07T09:36:21;151762.31;;;2.60;100.00
10127;BME280;13080;42.608;23.362;2023-12-07T09:38:51;151770.03;;;2.63;100.00
10127;BME280;13080;42.608;23.362;2023-12-07T09:41:18;151772.59;;;2.64;100.00
10127;BME280;13080;42.608;23.362;2023-12-07T09:43:45;151771.31;;;2.64;100.00
10127;BME280;13080;42.608;23.362;2023-12-07T09:46:12;151717.13;;;2.42;100.00
10127;BME280;13080;42.608;23.362;2023-12-07T09:48:42;151733.91;;;2.49;100.00
10127;BME280;13080;42.608;23.362;2023-12-07T09:51:09;151673.25;;;2.25;100.00
10127;BME280;13080;42.608;23.362;2023-12-07T09:53:38;151702.91;;;2.37;100.00
10127;BME280;13080;42.608;23.362;2023-12-07T09:56:09;151668.09;;;2.23;100.00
10127;BME280;13080;42.608;23.362;2023-12-07T09:58:36;151637.09;;;2.11;100.00
10127;BME280;13080;42.608;23.362;2023-12-07T10:01:04;151617.78;;;2.03;100.00
10127;BME280;13080;42.608;23.362;2023-12-07T10:03:31;151625.50;;;2.06;100.00
10127;BME280;13080;42.608;23.362;2023-12-07T10:05:59;151599.72;;;1.96;100.00
10127;BME280;13080;42.608;23.362;2023-12-07T10:08:28;151576.50;;;1.86;100.00
10127;BME280;13080;42.608;23.362;2023-12-07T10:11:03;151555.84;;;1.78;100.00
10127;BME280;13080;42.608;23.362;2023-12-07T10:13:32;151566.19;;;1.82;100.00
10127;BME280;13080;42.608;23.362;2023-12-07T10:16:07;151555.84;;;1.78;100.00
10127;BME280;13080;42.608;23.362;2023-12-07T10:18:35;151558.41;;;1.79;100.00
10127;BME280;13080;42.608;23.362;2023-12-07T10:21:03;151541.69;;;1.73;100.00
10127;BME280;13080;42.608;23.362;2023-12-07T10:23:30;151530.03;;;1.68;100.00
10127;BME280;13080;42.608;23.362;2023-12-07T10:25:58;151496.56;;;1.55;100.00
10127;BME280;13080;42.608;23.362;2023-12-07T10:28:26;151490.06;;;1.52;100.00
10127;BME280;13080;42.608;23.362;2023-12-07T10:30:54;151486.25;;;1.51;100.00
10127;BME280;13080;42.608;23.362;2023-12-07T10:33:21;151466.88;;;1.43;100.00
10127;BME280;13080;42.608;23.362;2023-12-07T10:35:48;151448.81;;;1.36;100.00
10127;BME280;13080;42.608;23.362;2023-12-07T10:38:15;151452.72;;;1.37;100.00
10127;BME280;13080;42.608;23.362;2023-12-07T10:40:45;151448.81;;;1.36;100.00
10127;BME280;13080;42.608;23.362;2023-12-07T10:43:14;151430.78;;;1.29;100.00
10127;BME280;13080;42.608;23.362;2023-12-07T10:45:43;151408.88;;;1.20;100.00
10127;BME280;13080;42.608;23.362;2023-12-07T10:48:12;151390.84;;;1.13;100.00
10127;BME280;13080;42.608;23.362;2023-12-07T10:50:42;151379.25;;;1.08;100.00
10127;BME280;13080;42.608;23.362;2023-12-07T10:53:21;151377.91;;;1.08;100.00
10127;BME280;13080;42.608;23.362;2023-12-07T10:55:55;151385.69;;;1.11;100.00
10127;BME280;13080;42.608;23.362;2023-12-07T10:58:23;151384.41;;;1.10;100.00
10127;BME280;13080;42.608;23.362;2023-12-07T11:00:52;151388.22;;;1.12;100.00
10127;BME280;13080;42.608;23.362;2023-12-07T11:03:21;151374.06;;;1.06;100.00
10127;BME280;13080;42.608;23.362;2023-12-07T11:05:48;151388.22;;;1.12;100.00
10127;BME280;13080;42.608;23.362;2023-12-07T11:08:21;151414.03;;;1.22;100.00
10127;BME280;13080;42.608;23.362;2023-12-07T11:10:58;151397.28;;;1.15;100.00
10127;BME280;13080;42.608;23.362;2023-12-07T11:13:29;151402.44;;;1.17;100.00
10127;BME280;13080;42.608;23.362;2023-12-07T11:15:57;151406.31;;;1.19;100.00
10127;BME280;13080;42.608;23.362;2023-12-07T11:18:26;151397.28;;;1.15;100.00
10127;BME280;13080;42.608;23.362;2023-12-07T11:20:54;151397.28;;;1.15;100.00
10127;BME280;13080;42.608;23.362;2023-12-07T11:23:22;151380.50;;;1.09;100.00
10127;BME280;13080;42.608;23.362;2023-12-07T11:25:50;151359.88;;;1.00;100.00
10127;BME280;13080;42.608;23.362;2023-12-07T11:28:18;151336.69;;;0.91;100.00
10127;BME280;13080;42.608;23.362;2023-12-07T11:30:45;151308.34;;;0.80;100.00
10127;BME280;13080;42.608;23.362;2023-12-07T11:33:14;151308.34;;;0.80;100.00
10127;BME280;13080;42.608;23.362;2023-12-07T11:36:03;151299.34;;;0.76;100.00
10127;BME280;13080;42.608;23.362;2023-12-07T11:38:31;151305.78;;;0.79;100.00
10127;BME280;13080;42.608;23.362;2023-12-07T11:40:59;151326.38;;;0.87;100.00
10127;BME280;13080;42.608;23.362;2023-12-07T11:43:42;151323.81;;;0.86;100.00
10127;BME280;13080;42.608;23.362;2023-12-07T11:46:12;151303.19;;;0.78;100.00
10127;BME280;13080;42.608;23.362;2023-12-07T11:48:46;151314.78;;;0.82;100.00
10127;BME280;13080;42.608;23.362;2023-12-07T11:51:16;151308.34;;;0.80;100.00
10127;BME280;13080;42.608;23.362;2023-12-07T11:53:43;151330.25;;;0.89;100.00
10127;BME280;13080;42.608;23.362;2023-12-07T11:56:10;151330.25;;;0.89;100.00
10127;BME280;13080;42.608;23.362;2023-12-07T11:58:38;151323.81;;;0.86;100.00
10127;BME280;13080;42.608;23.362;2023-12-07T12:01:05;151327.69;;;0.88;100.00
10127;BME280;13080;42.608;23.362;2023-12-07T12:03:33;151328.97;;;0.88;100.00
10127;BME280;13080;42.608;23.362;2023-12-07T12:06:03;151328.97;;;0.88;100.00
10127;BME280;13080;42.608;23.362;2023-12-07T12:08:32;151316.09;;;0.83;100.00
10127;BME280;13080;42.608;23.362;2023-12-07T12:10:59;151301.91;;;0.77;100.00
10127;BME280;13080;42.608;23.362;2023-12-07T12:13:27;151282.59;;;0.70;100.00
10127;BME280;13080;42.608;23.362;2023-12-07T12:15:55;151272.28;;;0.66;100.00
10127;BME280;13080;42.608;23.362;2023-12-07T12:18:22;151280.00;;;0.69;100.00
10127;BME280;13080;42.608;23.362;2023-12-07T12:20:51;151281.25;;;0.69;100.00
10127;BME280;13080;42.608;23.362;2023-12-07T12:23:18;151278.72;;;0.68;100.00
10127;BME280;13080;42.608;23.362;2023-12-07T12:25:47;151273.56;;;0.66;100.00
10127;BME280;13080;42.608;23.362;2023-12-07T12:28:15;151289.03;;;0.72;100.00
10127;BME280;13080;42.608;23.362;2023-12-07T12:30:43;151258.06;;;0.60;100.00
10127;BME280;13080;42.608;23.362;2023-12-07T12:33:10;151240.03;;;0.53;100.00
10127;BME280;13080;42.608;23.362;2023-12-07T12:35:39;151210.44;;;0.41;100.00
10127;BME280;13080;42.608;23.362;2023-12-07T12:38:09;151216.88;;;0.44;100.00
10127;BME280;13080;42.608;23.362;2023-12-07T12:40:36;151237.50;;;0.52;100.00
10127;BME280;13080;42.608;23.362;2023-12-07T12:43:04;151237.50;;;0.52;100.00
10127;BME280;13080;42.608;23.362;2023-12-07T12:45:33;151227.19;;;0.48;100.00